Agana Heights, GU

8:10 AM ChST on February 08, 2016 (GMT +1000)
Maite | | Change Station
CLOSE
Current Station
Personal Weather Station
Location: Maite, GU
Elevation: 140 ft
Nearby Weather Stations

Elev 140 ft 13.48 °N, 144.76 °E | Updated 33 seconds ago

Scattered Clouds
Scattered Clouds
80.2 °F
Feels Like 85 °F
N
8.0
Wind Variable Wind from ESE
Gusts 14.0 mph

Today
High -- | Low -- °F
--% Chance of Precip.
Yesterday
High -- | Low -- °F
Precip. -- in
Pressure 29.99 in
Visibility 10.0 miles
Clouds Few 2300 ft
Scattered Clouds 2900 ft
Heat Index 85 °F
Dew Point 74 °F
Humidity 80%
Rainfall 0.00 in
Snow Depth Not available.
6:46 AM 6:23 PM
Waning Crescent, 1% visible
METAR PGUM 072154Z 09013KT 10SM FEW023 SCT029 26/22 A3001 RMK AO2 SLP154 T02610217 $
Pressure 29.99 in
Visibility 10.0 miles
Clouds Few 2300 ft
Scattered Clouds 2900 ft
Heat Index 85 °F
Dew Point 74 °F
Humidity 80%
Rainfall 0.00 in
Snow Depth Not available.
6:46 AM 6:23 PM
Waning Crescent, 1% visible
METAR PGUM 072154Z 09013KT 10SM FEW023 SCT029 26/22 A3001 RMK AO2 SLP154 T02610217 $

10-Day Weather Forecast

Almanac

Astronomy

Feb. 08, 2016 Rise Set
Actual Time
Civil Twilight
Nautical Twilight
Astronomical Twilight
Moon
Length of Visible Light
Length of Day
Tomorrow will be .
, % of the Moon is Illuminated

Today's Extremes

State Highs State Lows

Community

WunderPhotos

Upload Photos

1,891,304 photos uploaded!

WunderBlog® & News

Nearby

Air Quality

  Air Quality AQ Index Pollutant
Not available.

Snow Depth

Station Depth Elevation

Earthquake Activity

City Distance Mag. Time & Date
Minimum magnitude displayed is 2.5.

Coastal Water Temperatures

Place Temperature

Stations

Nearby Weather Stations

Station Location Temp. Windchill Dew Point Humidity Wind Precip. Elev Updated Type
                   

Watches & Warnings

There are currently no watches in effect.